sensor_id;sensor_type;location;lat;lon;timestamp;pressure;altitude;pressure_sealevel;temperature;humidity
72896;BME280;61036;53.224;6.554;2024-01-25T00:01:14;100964.19;;;7.17;100.00
72896;BME280;61036;53.224;6.554;2024-01-25T00:03:40;100970.44;;;7.02;100.00
72896;BME280;61036;53.224;6.554;2024-01-25T00:06:06;100975.72;;;7.03;100.00
72896;BME280;61036;53.224;6.554;2024-01-25T00:08:33;100971.56;;;6.98;100.00
72896;BME280;61036;53.224;6.554;2024-01-25T00:10:59;100961.91;;;6.95;100.00
72896;BME280;61036;53.224;6.554;2024-01-25T00:13:24;100967.28;;;6.95;100.00
72896;BME280;61036;53.224;6.554;2024-01-25T00:15:50;100964.66;;;6.94;100.00
72896;BME280;61036;53.224;6.554;2024-01-25T00:18:15;100980.31;;;6.85;100.00
72896;BME280;61036;53.224;6.554;2024-01-25T00:20:41;100982.41;;;6.80;100.00
72896;BME280;61036;53.224;6.554;2024-01-25T00:23:07;100970.72;;;6.81;100.00
72896;BME280;61036;53.224;6.554;2024-01-25T00:25:32;100971.94;;;6.76;100.00
72896;BME280;61036;53.224;6.554;2024-01-25T00:27:57;100964.19;;;6.71;100.00
72896;BME280;61036;53.224;6.554;2024-01-25T00:30:23;100963.56;;;6.66;100.00
72896;BME280;61036;53.224;6.554;2024-01-25T00:32:48;100963.13;;;6.74;100.00
72896;BME280;61036;53.224;6.554;2024-01-25T00:35:15;100962.19;;;6.59;100.00
72896;BME280;61036;53.224;6.554;2024-01-25T00:37:41;100958.38;;;6.63;100.00
72896;BME280;61036;53.224;6.554;2024-01-25T00:40:07;100952.59;;;6.55;100.00
72896;BME280;61036;53.224;6.554;2024-01-25T00:42:41;100942.72;;;6.55;100.00
72896;BME280;61036;53.224;6.554;2024-01-25T00:45:07;100947.69;;;6.47;100.00
72896;BME280;61036;53.224;6.554;2024-01-25T00:47:33;100949.75;;;6.42;100.00
72896;BME280;61036;53.224;6.554;2024-01-25T00:49:59;100937.19;;;6.43;100.00
72896;BME280;61036;53.224;6.554;2024-01-25T00:52:24;100931.66;;;6.46;100.00
72896;BME280;61036;53.224;6.554;2024-01-25T00:54:50;100939.72;;;6.30;100.00
72896;BME280;61036;53.224;6.554;2024-01-25T00:57:16;100935.38;;;6.27;100.00
72896;BME280;61036;53.224;6.554;2024-01-25T00:59:42;100934.34;;;6.30;100.00
72896;BME280;61036;53.224;6.554;2024-01-25T01:02:12;100902.66;;;6.38;100.00
72896;BME280;61036;53.224;6.554;2024-01-25T01:04:39;100907.91;;;6.24;100.00
72896;BME280;61036;53.224;6.554;2024-01-25T01:07:05;100908.69;;;6.26;100.00
72896;BME280;61036;53.224;6.554;2024-01-25T01:09:31;100900.63;;;6.26;100.00
72896;BME280;61036;53.224;6.554;2024-01-25T01:11:56;100898.91;;;6.25;100.00
72896;BME280;61036;53.224;6.554;2024-01-25T01:14:22;100897.88;;;6.27;100.00
72896;BME280;61036;53.224;6.554;2024-01-25T01:16:47;100913.50;;;6.19;100.00
72896;BME280;61036;53.224;6.554;2024-01-25T01:19:13;100908.59;;;6.27;100.00
72896;BME280;61036;53.224;6.554;2024-01-25T01:21:38;100897.97;;;6.26;100.00
72896;BME280;61036;53.224;6.554;2024-01-25T01:24:06;100906.63;;;6.15;100.00
72896;BME280;61036;53.224;6.554;2024-01-25T01:26:32;100914.53;;;6.16;100.00
72896;BME280;61036;53.224;6.554;2024-01-25T01:28:57;100917.78;;;6.23;100.00
72896;BME280;61036;53.224;6.554;2024-01-25T01:31:23;100921.38;;;6.22;100.00
72896;BME280;61036;53.224;6.554;2024-01-25T01:33:48;100921.47;;;6.21;100.00
72896;BME280;61036;53.224;6.554;2024-01-25T01:36:14;100913.44;;;6.21;100.00
72896;BME280;61036;53.224;6.554;2024-01-25T01:38:40;100926.22;;;6.15;100.00
72896;BME280;61036;53.224;6.554;2024-01-25T01:41:06;100924.50;;;6.14;100.00
72896;BME280;61036;53.224;6.554;2024-01-25T01:43:31;100928.31;;;6.26;100.00
72896;BME280;61036;53.224;6.554;2024-01-25T01:46:04;100919.16;;;6.30;100.00
72896;BME280;61036;53.224;6.554;2024-01-25T01:48:32;100943.25;;;6.14;100.00
72896;BME280;61036;53.224;6.554;2024-01-25T01:50:58;100950.16;;;6.18;100.00
72896;BME280;61036;53.224;6.554;2024-01-25T01:53:23;100938.47;;;6.19;100.00
72896;BME280;61036;53.224;6.554;2024-01-25T01:55:49;100952.13;;;6.15;100.00
72896;BME280;61036;53.224;6.554;2024-01-25T01:58:15;100943.94;;;6.18;100.00
72896;BME280;61036;53.224;6.554;2024-01-25T02:00:41;100932.94;;;6.23;100.00
72896;BME280;61036;53.224;6.554;2024-01-25T02:03:07;100944.59;;;6.06;100.00
72896;BME280;61036;53.224;6.554;2024-01-25T02:05:33;100937.09;;;6.12;100.00
72896;BME280;61036;53.224;6.554;2024-01-25T02:07:58;100929.69;;;6.17;100.00
72896;BME280;61036;53.224;6.554;2024-01-25T02:10:24;100932.78;;;6.10;100.00
72896;BME280;61036;53.224;6.554;2024-01-25T02:12:49;100935.78;;;6.04;100.00
72896;BME280;61036;53.224;6.554;2024-01-25T02:15:15;100930.53;;;6.02;100.00
72896;BME280;61036;53.224;6.554;2024-01-25T02:17:40;100913.28;;;6.08;100.00
72896;BME280;61036;53.224;6.554;2024-01-25T02:20:06;100914.19;;;6.07;100.00
72896;BME280;61036;53.224;6.554;2024-01-25T02:22:32;100909.69;;;6.07;100.00
72896;BME280;61036;53.224;6.554;2024-01-25T02:24:58;100899.88;;;6.08;100.00
72896;BME280;61036;53.224;6.554;2024-01-25T02:27:23;100913.69;;;6.00;100.00
72896;BME280;61036;53.224;6.554;2024-01-25T02:29:49;100909.19;;;6.01;100.00
72896;BME280;61036;53.224;6.554;2024-01-25T02:32:14;100914.16;;;5.91;100.00
72896;BME280;61036;53.224;6.554;2024-01-25T02:34:40;100905.03;;;5.95;100.00
72896;BME280;61036;53.224;6.554;2024-01-25T02:37:05;100904.16;;;5.94;100.00
72896;BME280;61036;53.224;6.554;2024-01-25T02:39:31;100902.75;;;5.87;100.00
72896;BME280;61036;53.224;6.554;2024-01-25T02:41:56;100904.81;;;5.82;100.00
72896;BME280;61036;53.224;6.554;2024-01-25T02:44:22;100900.25;;;5.84;100.00
72896;BME280;61036;53.224;6.554;2024-01-25T02:46:47;100895.13;;;5.80;100.00
72896;BME280;61036;53.224;6.554;2024-01-25T02:49:13;100891.81;;;5.74;100.00
72896;BME280;61036;53.224;6.554;2024-01-25T02:51:38;100890.59;;;5.64;100.00
72896;BME280;61036;53.224;6.554;2024-01-25T02:54:04;100885.94;;;5.68;100.00
72896;BME280;61036;53.224;6.554;2024-01-25T02:56:29;100865.06;;;5.74;100.00
72896;BME280;61036;53.224;6.554;2024-01-25T02:59:00;100868.34;;;5.64;100.00
72896;BME280;61036;53.224;6.554;2024-01-25T03:01:26;100854.97;;;5.64;100.00
72896;BME280;61036;53.224;6.554;2024-01-25T03:03:51;100848.13;;;5.58;100.00
72896;BME280;61036;53.224;6.554;2024-01-25T03:06:17;100838.56;;;5.54;100.00
72896;BME280;61036;53.224;6.554;2024-01-25T03:08:42;100835.31;;;5.47;100.00
72896;BME280;61036;53.224;6.554;2024-01-25T03:11:08;100817.16;;;5.54;100.00
72896;BME280;61036;53.224;6.554;2024-01-25T03:13:34;100824.56;;;5.49;100.00
72896;BME280;61036;53.224;6.554;2024-01-25T03:15:59;100811.34;;;5.46;100.00
72896;BME280;61036;53.224;6.554;2024-01-25T03:18:25;100803.50;;;5.43;100.00
72896;BME280;61036;53.224;6.554;2024-01-25T03:20:50;100799.53;;;5.50;100.00
72896;BME280;61036;53.224;6.554;2024-01-25T03:23:16;100793.75;;;5.42;100.00
72896;BME280;61036;53.224;6.554;2024-01-25T03:25:42;100781.47;;;5.38;100.00
72896;BME280;61036;53.224;6.554;2024-01-25T03:28:08;100758.03;;;5.43;100.00
72896;BME280;61036;53.224;6.554;2024-01-25T03:30:35;100746.31;;;5.45;100.00
72896;BME280;61036;53.224;6.554;2024-01-25T03:33:00;100748.28;;;5.42;100.00
72896;BME280;61036;53.224;6.554;2024-01-25T03:35:26;100736.03;;;5.38;100.00
72896;BME280;61036;53.224;6.554;2024-01-25T03:37:52;100710.75;;;5.43;100.00
72896;BME280;61036;53.224;6.554;2024-01-25T03:40:17;100706.53;;;5.39;100.00
72896;BME280;61036;53.224;6.554;2024-01-25T03:42:43;100702.13;;;5.38;100.00
72896;BME280;61036;53.224;6.554;2024-01-25T03:45:09;100709.63;;;5.32;100.00
72896;BME280;61036;53.224;6.554;2024-01-25T03:47:34;100707.91;;;5.31;100.00
72896;BME280;61036;53.224;6.554;2024-01-25T03:50:00;100703.06;;;5.21;100.00
72896;BME280;61036;53.224;6.554;2024-01-25T03:52:25;100696.59;;;5.25;100.00
72896;BME280;61036;53.224;6.554;2024-01-25T03:54:55;100692.53;;;5.18;100.00
72896;BME280;61036;53.224;6.554;2024-01-25T03:57:20;100667.00;;;5.28;100.00
72896;BME280;61036;53.224;6.554;2024-01-25T03:59:46;100664.06;;;5.17;100.00
72896;BME280;61036;53.224;6.554;2024-01-25T04:02:12;100657.28;;;5.12;100.00
72896;BME280;61036;53.224;6.554;2024-01-25T04:04:37;100653.63;;;5.13;100.00
72896;BME280;61036;53.224;6.554;2024-01-25T04:07:03;100629.06;;;5.38;100.00
72896;BME280;61036;53.224;6.554;2024-01-25T04:09:28;100637.50;;;5.46;100.00
72896;BME280;61036;53.224;6.554;2024-01-25T04:11:55;100643.47;;;5.51;100.00
72896;BME280;61036;53.224;6.554;2024-01-25T04:14:21;100670.13;;;5.37;100.00
72896;BME280;61036;53.224;6.554;2024-01-25T04:16:47;100680.22;;;5.32;100.00
72896;BME280;61036;53.224;6.554;2024-01-25T04:19:15;100685.38;;;5.35;100.00
72896;BME280;61036;53.224;6.554;2024-01-25T04:21:41;100697.38;;;5.27;100.00
72896;BME280;61036;53.224;6.554;2024-01-25T04:24:06;100699.25;;;5.25;100.00
72896;BME280;61036;53.224;6.554;2024-01-25T04:26:32;100707.28;;;5.25;100.00
72896;BME280;61036;53.224;6.554;2024-01-25T04:28:58;100695.72;;;5.25;100.00
72896;BME280;61036;53.224;6.554;2024-01-25T04:31:23;100701.88;;;5.27;100.00
72896;BME280;61036;53.224;6.554;2024-01-25T04:33:49;100705.28;;;5.13;100.00
72896;BME280;61036;53.224;6.554;2024-01-25T04:36:14;100699.88;;;5.15;100.00
72896;BME280;61036;53.224;6.554;2024-01-25T04:38:40;100698.66;;;5.20;100.00
72896;BME280;61036;53.224;6.554;2024-01-25T04:41:06;100711.75;;;5.09;100.00
72896;BME280;61036;53.224;6.554;2024-01-25T04:43:35;100717.84;;;5.11;100.00
72896;BME280;61036;53.224;6.554;2024-01-25T04:46:04;100713.94;;;5.18;100.00
72896;BME280;61036;53.224;6.554;2024-01-25T04:48:30;100707.00;;;5.14;100.00
72896;BME280;61036;53.224;6.554;2024-01-25T04:50:59;100702.97;;;5.23;100.00
72896;BME280;61036;53.224;6.554;2024-01-25T04:53:25;100708.06;;;5.12;100.00
72896;BME280;61036;53.224;6.554;2024-01-25T04:55:50;100722.63;;;5.06;100.00
72896;BME280;61036;53.224;6.554;2024-01-25T04:58:16;100724.16;;;5.10;100.00
72896;BME280;61036;53.224;6.554;2024-01-25T05:00:41;100721.59;;;5.09;100.00
72896;BME280;61036;53.224;6.554;2024-01-25T05:03:07;100720.38;;;5.14;100.00
72896;BME280;61036;53.224;6.554;2024-01-25T05:05:33;100733.53;;;5.01;100.00
72896;BME280;61036;53.224;6.554;2024-01-25T05:07:58;100727.09;;;5.06;100.00
72896;BME280;61036;53.224;6.554;2024-01-25T05:10:24;100724.25;;;5.09;100.00
72896;BME280;61036;53.224;6.554;2024-01-25T05:12:50;100738.13;;;4.99;100.00
72896;BME280;61036;53.224;6.554;2024-01-25T05:15:16;100732.78;;;4.99;100.00
72896;BME280;61036;53.224;6.554;2024-01-25T05:17:42;100728.44;;;4.97;100.00
72896;BME280;61036;53.224;6.554;2024-01-25T05:20:08;100706.56;;;5.06;100.00
72896;BME280;61036;53.224;6.554;2024-01-25T05:22:34;100715.00;;;4.98;100.00
72896;BME280;61036;53.224;6.554;2024-01-25T05:25:05;100722.16;;;4.98;100.00
72896;BME280;61036;53.224;6.554;2024-01-25T05:27:31;100726.63;;;4.97;100.00
72896;BME280;61036;53.224;6.554;2024-01-25T05:29:57;100731.28;;;4.94;100.00
72896;BME280;61036;53.224;6.554;2024-01-25T05:32:23;100720.66;;;4.92;100.00
72896;BME280;61036;53.224;6.554;2024-01-25T05:34:49;100720.66;;;4.92;100.00
72896;BME280;61036;53.224;6.554;2024-01-25T05:37:14;100715.75;;;4.85;100.00
72896;BME280;61036;53.224;6.554;2024-01-25T05:39:40;100712.19;;;4.84;100.00
72896;BME280;61036;53.224;6.554;2024-01-25T05:42:06;100706.84;;;4.84;100.00
72896;BME280;61036;53.224;6.554;2024-01-25T05:44:34;100710.25;;;4.88;100.00
72896;BME280;61036;53.224;6.554;2024-01-25T05:47:00;100701.34;;;4.87;100.00
72896;BME280;61036;53.224;6.554;2024-01-25T05:49:26;100702.13;;;4.89;100.00
72896;BME280;61036;53.224;6.554;2024-01-25T05:51:51;100702.28;;;4.86;100.00
72896;BME280;61036;53.224;6.554;2024-01-25T05:54:17;100707.91;;;4.81;100.00
72896;BME280;61036;53.224;6.554;2024-01-25T05:56:42;100695.81;;;4.90;100.00
72896;BME280;61036;53.224;6.554;2024-01-25T05:59:08;100697.91;;;4.85;100.00
72896;BME280;61036;53.224;6.554;2024-01-25T06:01:33;100703.69;;;4.93;100.00
72896;BME280;61036;53.224;6.554;2024-01-25T06:03:59;100718.91;;;4.75;100.00
72896;BME280;61036;53.224;6.554;2024-01-25T06:06:25;100707.75;;;4.85;100.00
72896;BME280;61036;53.224;6.554;2024-01-25T06:08:51;100709.84;;;4.78;100.00
72896;BME280;61036;53.224;6.554;2024-01-25T06:11:16;100722.66;;;4.71;100.00
72896;BME280;61036;53.224;6.554;2024-01-25T06:13:42;100714.50;;;4.74;100.00
72896;BME280;61036;53.224;6.554;2024-01-25T06:16:08;100714.59;;;4.73;100.00
72896;BME280;61036;53.224;6.554;2024-01-25T06:18:33;100713.47;;;4.77;100.00
72896;BME280;61036;53.224;6.554;2024-01-25T06:20:59;100708.91;;;4.79;100.00
72896;BME280;61036;53.224;6.554;2024-01-25T06:23:25;100702.56;;;4.81;100.00
72896;BME280;61036;53.224;6.554;2024-01-25T06:25:50;100711.50;;;4.80;100.00
72896;BME280;61036;53.224;6.554;2024-01-25T06:28:16;100711.34;;;4.84;100.00
72896;BME280;61036;53.224;6.554;2024-01-25T06:30:41;100706.63;;;4.89;100.00
72896;BME280;61036;53.224;6.554;2024-01-25T06:33:07;100697.63;;;4.90;100.00
72896;BME280;61036;53.224;6.554;2024-01-25T06:35:33;100712.34;;;4.81;100.00
72896;BME280;61036;53.224;6.554;2024-01-25T06:37:59;100712.69;;;4.75;100.00
72896;BME280;61036;53.224;6.554;2024-01-25T06:40:24;100728.50;;;4.62;100.00
72896;BME280;61036;53.224;6.554;2024-01-25T06:42:50;100730.53;;;4.57;100.00
72896;BME280;61036;53.224;6.554;2024-01-25T06:45:16;100728.81;;;4.56;100.00
72896;BME280;61036;53.224;6.554;2024-01-25T06:47:42;100727.09;;;4.55;100.00
72896;BME280;61036;53.224;6.554;2024-01-25T06:50:08;100722.19;;;4.63;100.00
72896;BME280;61036;53.224;6.554;2024-01-25T06:52:34;100714.28;;;4.62;100.00
72896;BME280;61036;53.224;6.554;2024-01-25T06:55:00;100710.59;;;4.64;100.00
72896;BME280;61036;53.224;6.554;2024-01-25T06:57:26;100722.78;;;4.52;100.00
72896;BME280;61036;53.224;6.554;2024-01-25T06:59:51;100719.47;;;4.47;100.00
72896;BME280;61036;53.224;6.554;2024-01-25T07:02:17;100716.03;;;4.45;100.00
72896;BME280;61036;53.224;6.554;2024-01-25T07:04:43;100718.59;;;4.47;100.00
72896;BME280;61036;53.224;6.554;2024-01-25T07:07:09;100718.59;;;4.47;100.00
72896;BME280;61036;53.224;6.554;2024-01-25T07:09:34;100715.16;;;4.45;100.00
72896;BME280;61036;53.224;6.554;2024-01-25T07:12:00;100693.72;;;4.64;100.00
72896;BME280;61036;53.224;6.554;2024-01-25T07:14:26;100696.97;;;4.69;100.00
72896;BME280;61036;53.224;6.554;2024-01-25T07:16:51;100694.06;;;4.73;100.00
72896;BME280;61036;53.224;6.554;2024-01-25T07:19:17;100688.63;;;4.75;100.00
72896;BME280;61036;53.224;6.554;2024-01-25T07:21:43;100698.94;;;4.65;100.00
72896;BME280;61036;53.224;6.554;2024-01-25T07:24:11;100702.91;;;4.58;100.00
72896;BME280;61036;53.224;6.554;2024-01-25T07:26:36;100712.00;;;4.54;100.00
72896;BME280;61036;53.224;6.554;2024-01-25T07:29:03;100700.06;;;4.61;100.00
72896;BME280;61036;53.224;6.554;2024-01-25T07:31:28;100685.22;;;4.73;100.00
72896;BME280;61036;53.224;6.554;2024-01-25T07:33:57;100683.22;;;4.76;100.00
72896;BME280;61036;53.224;6.554;2024-01-25T07:36:22;100704.22;;;4.67;100.00
72896;BME280;61036;53.224;6.554;2024-01-25T07:38:48;100707.13;;;4.62;100.00
72896;BME280;61036;53.224;6.554;2024-01-25T07:41:14;100697.28;;;4.80;100.00
72896;BME280;61036;53.224;6.554;2024-01-25T07:43:41;100695.22;;;4.85;100.00
72896;BME280;61036;53.224;6.554;2024-01-25T07:46:07;100685.94;;;4.92;100.00
72896;BME280;61036;53.224;6.554;2024-01-25T07:48:33;100704.28;;;4.82;100.00
72896;BME280;61036;53.224;6.554;2024-01-25T07:50:58;100693.00;;;4.93;100.00
72896;BME280;61036;53.224;6.554;2024-01-25T07:53:24;100671.16;;;5.18;100.00
72896;BME280;61036;53.224;6.554;2024-01-25T07:55:49;100697.78;;;5.04;100.00
72896;BME280;61036;53.224;6.554;2024-01-25T07:58:15;100740.19;;;4.77;100.00
72896;BME280;61036;53.224;6.554;2024-01-25T08:00:41;100757.88;;;4.62;100.00
72896;BME280;61036;53.224;6.554;2024-01-25T08:03:08;100758.81;;;4.61;100.00
72896;BME280;61036;53.224;6.554;2024-01-25T08:05:34;100771.22;;;4.62;100.00
72896;BME280;61036;53.224;6.554;2024-01-25T08:08:00;100754.81;;;4.70;100.00
72896;BME280;61036;53.224;6.554;2024-01-25T08:10:25;100749.16;;;4.76;100.00
72896;BME280;61036;53.224;6.554;2024-01-25T08:12:51;100758.25;;;4.89;100.00
72896;BME280;61036;53.224;6.554;2024-01-25T08:15:17;100763.34;;;4.94;100.00
72896;BME280;61036;53.224;6.554;2024-01-25T08:17:43;100796.75;;;4.68;100.00
72896;BME280;61036;53.224;6.554;2024-01-25T08:20:09;100809.25;;;4.67;100.00
72896;BME280;61036;53.224;6.554;2024-01-25T08:22:38;100814.91;;;4.61;100.00
72896;BME280;61036;53.224;6.554;2024-01-25T08:25:04;100808.41;;;4.67;100.00
72896;BME280;61036;53.224;6.554;2024-01-25T08:27:30;100785.97;;;4.87;100.00
72896;BME280;61036;53.224;6.554;2024-01-25T08:29:56;100766.69;;;5.15;100.00
72896;BME280;61036;53.224;6.554;2024-01-25T08:32:21;100778.25;;;5.15;100.00
72896;BME280;61036;53.224;6.554;2024-01-25T08:34:47;100784.47;;;5.32;100.00
72896;BME280;61036;53.224;6.554;2024-01-25T08:37:13;100793.03;;;5.38;100.00
72896;BME280;61036;53.224;6.554;2024-01-25T08:39:39;100825.72;;;5.27;100.00
72896;BME280;61036;53.224;6.554;2024-01-25T08:42:05;100833.47;;;5.32;100.00
72896;BME280;61036;53.224;6.554;2024-01-25T08:44:32;100834.25;;;5.34;100.00
72896;BME280;61036;53.224;6.554;2024-01-25T08:46:57;100829.28;;;5.44;100.00
72896;BME280;61036;53.224;6.554;2024-01-25T08:49:26;100825.69;;;5.45;100.00
72896;BME280;61036;53.224;6.554;2024-01-25T08:51:51;100828.19;;;5.48;100.00
72896;BME280;61036;53.224;6.554;2024-01-25T08:54:16;100827.69;;;5.57;100.00
72896;BME280;61036;53.224;6.554;2024-01-25T08:56:42;100832.00;;;5.60;100.00
72896;BME280;61036;53.224;6.554;2024-01-25T08:59:07;100822.00;;;5.79;100.00
72896;BME280;61036;53.224;6.554;2024-01-25T09:01:33;100838.47;;;5.71;100.00
72896;BME280;61036;53.224;6.554;2024-01-25T09:03:58;100852.13;;;5.83;100.00
72896;BME280;61036;53.224;6.554;2024-01-25T09:06:29;100846.13;;;5.95;100.00
72896;BME280;61036;53.224;6.554;2024-01-25T09:08:55;100844.34;;;6.11;100.00
72896;BME280;61036;53.224;6.554;2024-01-25T09:11:21;100876.19;;;6.00;100.00
72896;BME280;61036;53.224;6.554;2024-01-25T09:13:46;100873.97;;;6.08;100.00
72896;BME280;61036;53.224;6.554;2024-01-25T09:16:13;100872.47;;;6.34;100.00
72896;BME280;61036;53.224;6.554;2024-01-25T09:18:39;100911.97;;;6.15;100.00
72896;BME280;61036;53.224;6.554;2024-01-25T09:21:04;100886.47;;;6.55;100.00
72896;BME280;61036;53.224;6.554;2024-01-25T09:23:30;100915.75;;;6.58;100.00
72896;BME280;61036;53.224;6.554;2024-01-25T09:25:55;100944.81;;;6.50;100.00
72896;BME280;61036;53.224;6.554;2024-01-25T09:28:21;100967.88;;;6.53;100.00
72896;BME280;61036;53.224;6.554;2024-01-25T09:30:46;100960.59;;;6.71;100.00
72896;BME280;61036;53.224;6.554;2024-01-25T09:33:12;100985.00;;;6.66;100.00
72896;BME280;61036;53.224;6.554;2024-01-25T09:35:37;100984.81;;;6.85;100.00
72896;BME280;61036;53.224;6.554;2024-01-25T09:38:03;100987.94;;;6.93;100.00
72896;BME280;61036;53.224;6.554;2024-01-25T09:40:28;101031.94;;;6.73;100.00
72896;BME280;61036;53.224;6.554;2024-01-25T09:42:54;101041.63;;;6.76;100.00
72896;BME280;61036;53.224;6.554;2024-01-25T09:45:20;101059.34;;;6.78;100.00
72896;BME280;61036;53.224;6.554;2024-01-25T09:47:46;101058.56;;;6.76;100.00
72896;BME280;61036;53.224;6.554;2024-01-25T09:50:12;101066.03;;;6.71;100.00
72896;BME280;61036;53.224;6.554;2024-01-25T09:52:38;101071.72;;;6.81;100.00
72896;BME280;61036;53.224;6.554;2024-01-25T09:55:07;101059.78;;;7.18;100.00
72896;BME280;61036;53.224;6.554;2024-01-25T09:57:35;101043.59;;;7.66;100.00
72896;BME280;61036;53.224;6.554;2024-01-25T10:00:03;101078.25;;;7.54;100.00
72896;BME280;61036;53.224;6.554;2024-01-25T10:02:30;101046.59;;;8.63;100.00
72896;BME280;61036;53.224;6.554;2024-01-25T10:04:55;101023.41;;;10.60;100.00
72896;BME280;61036;53.224;6.554;2024-01-25T10:07:41;101159.97;;;11.73;100.00
72896;BME280;61036;53.224;6.554;2024-01-25T10:10:07;101243.75;;;12.09;100.00
72896;BME280;61036;53.224;6.554;2024-01-25T10:12:33;101267.72;;;12.73;100.00
72896;BME280;61036;53.224;6.554;2024-01-25T10:14:59;101317.25;;;11.65;100.00
72896;BME280;61036;53.224;6.554;2024-01-25T10:17:25;101298.91;;;13.01;100.00
72896;BME280;61036;53.224;6.554;2024-01-25T10:19:51;101354.19;;;13.45;100.00
72896;BME280;61036;53.224;6.554;2024-01-25T10:22:18;101341.97;;;13.29;100.00
72896;BME280;61036;53.224;6.554;2024-01-25T10:24:44;101369.00;;;12.34;100.00
72896;BME280;61036;53.224;6.554;2024-01-25T10:27:10;101364.09;;;12.39;100.00
72896;BME280;61036;53.224;6.554;2024-01-25T10:29:36;101375.94;;;12.25;100.00
72896;BME280;61036;53.224;6.554;2024-01-25T10:32:06;101400.09;;;9.46;100.00
72896;BME280;61036;53.224;6.554;2024-01-25T10:34:35;101339.97;;;8.57;100.00
72896;BME280;61036;53.224;6.554;2024-01-25T10:37:04;101308.28;;;7.68;100.00
72896;BME280;61036;53.224;6.554;2024-01-25T10:39:31;101262.78;;;7.33;100.00
72896;BME280;61036;53.224;6.554;2024-01-25T10:41:58;101245.81;;;7.17;100.00
72896;BME280;61036;53.224;6.554;2024-01-25T10:44:24;101173.81;;;7.57;100.00
72896;BME280;61036;53.224;6.554;2024-01-25T10:46:50;101158.94;;;7.51;100.00
72896;BME280;61036;53.224;6.554;2024-01-25T10:49:17;101123.16;;;7.67;100.00
72896;BME280;61036;53.224;6.554;2024-01-25T10:51:44;101110.25;;;7.73;100.00
72896;BME280;61036;53.224;6.554;2024-01-25T10:54:11;101100.00;;;7.80;100.00
72896;BME280;61036;53.224;6.554;2024-01-25T10:56:41;101077.09;;;8.19;100.00
72896;BME280;61036;53.224;6.554;2024-01-25T10:59:07;101079.41;;;8.25;100.00
72896;BME280;61036;53.224;6.554;2024-01-25T11:01:34;101090.19;;;8.39;100.00
72896;BME280;61036;53.224;6.554;2024-01-25T11:04:00;101115.63;;;8.04;100.00
72896;BME280;61036;53.224;6.554;2024-01-25T11:06:27;101116.56;;;8.02;100.00
72896;BME280;61036;53.224;6.554;2024-01-25T11:09:04;101095.34;;;8.28;100.00
72896;BME280;61036;53.224;6.554;2024-01-25T11:11:31;101090.28;;;8.52;100.00
72896;BME280;61036;53.224;6.554;2024-01-25T11:13:58;101091.56;;;8.61;100.00
72896;BME280;61036;53.224;6.554;2024-01-25T11:16:29;101094.22;;;8.61;100.00
72896;BME280;61036;53.224;6.554;2024-01-25T11:18:57;101115.47;;;8.35;100.00
72896;BME280;61036;53.224;6.554;2024-01-25T11:21:40;101112.75;;;8.07;100.00
72896;BME280;61036;53.224;6.554;2024-01-25T11:26:37;101104.47;;;7.95;100.00
72896;BME280;61036;53.224;6.554;2024-01-25T11:29:03;101091.41;;;7.89;100.00
72896;BME280;61036;53.224;6.554;2024-01-25T11:31:28;101066.53;;;8.30;100.00
72896;BME280;61036;53.224;6.554;2024-01-25T11:33:58;101079.41;;;8.25;100.00
72896;BME280;61036;53.224;6.554;2024-01-25T11:36:24;101059.47;;;8.58;100.00
72896;BME280;61036;53.224;6.554;2024-01-25T11:38:50;101075.13;;;8.65;100.00
72896;BME280;61036;53.224;6.554;2024-01-25T11:41:15;101089.84;;;8.30;100.00
72896;BME280;61036;53.224;6.554;2024-01-25T11:43:41;101082.84;;;8.27;100.00
72896;BME280;61036;53.224;6.554;2024-01-25T11:46:07;101080.25;;;8.25;100.00
72896;BME280;61036;53.224;6.554;2024-01-25T11:48:33;101084.50;;;7.85;100.00
72896;BME280;61036;53.224;6.554;2024-01-25T11:51:00;101081.84;;;7.69;100.00
72896;BME280;61036;53.224;6.554;2024-01-25T11:53:25;101063.91;;;7.70;100.00
72896;BME280;61036;53.224;6.554;2024-01-25T11:55:52;101053.97;;;7.72;100.00
72896;BME280;61036;53.224;6.554;2024-01-25T11:58:20;101050.00;;;7.63;100.00
72896;BME280;61036;53.224;6.554;2024-01-25T12:00:46;101031.31;;;7.62;100.00
72896;BME280;61036;53.224;6.554;2024-01-25T12:03:11;101021.69;;;7.73;100.00
72896;BME280;61036;53.224;6.554;2024-01-25T12:05:37;101002.72;;;8.05;100.00
72896;BME280;61036;53.224;6.554;2024-01-25T12:08:12;101015.25;;;7.90;100.00
72896;BME280;61036;53.224;6.554;2024-01-25T12:10:38;101025.88;;;7.77;100.00
72896;BME280;61036;53.224;6.554;2024-01-25T12:13:03;101024.78;;;7.96;100.00
72896;BME280;61036;53.224;6.554;2024-01-25T12:15:32;101022.59;;;8.17;100.00
72896;BME280;61036;53.224;6.554;2024-01-25T12:17:58;101047.31;;;8.08;100.00
72896;BME280;61036;53.224;6.554;2024-01-25T12:20:24;101042.16;;;8.33;100.00
72896;BME280;61036;53.224;6.554;2024-01-25T12:22:50;101073.72;;;8.15;100.00
72896;BME280;61036;53.224;6.554;2024-01-25T12:25:15;101075.47;;;8.31;100.00
72896;BME280;61036;53.224;6.554;2024-01-25T12:27:41;101087.16;;;8.30;100.00
72896;BME280;61036;53.224;6.554;2024-01-25T12:30:07;101078.38;;;8.42;100.00
72896;BME280;61036;53.224;6.554;2024-01-25T12:32:34;101084.22;;;8.63;100.00
72896;BME280;61036;53.224;6.554;2024-01-25T12:35:00;101101.13;;;8.51;100.00
72896;BME280;61036;53.224;6.554;2024-01-25T12:37:26;101099.63;;;8.61;100.00
72896;BME280;61036;53.224;6.554;2024-01-25T12:39:53;101110.81;;;8.53;100.00
72896;BME280;61036;53.224;6.554;2024-01-25T12:42:20;101126.09;;;8.53;100.00
72896;BME280;61036;53.224;6.554;2024-01-25T12:44:46;101131.44;;;8.38;100.00
72896;BME280;61036;53.224;6.554;2024-01-25T12:47:12;101124.75;;;8.45;100.00